sensor_id;sensor_type;location;lat;lon;timestamp;temperature;humidity
7762;DHT22;3925;48.636;9.516;2022-08-19T00:00:09;20.20;99.90
7762;DHT22;3925;48.636;9.516;2022-08-19T00:02:36;20.20;99.90
7762;DHT22;3925;48.636;9.516;2022-08-19T00:05:04;20.20;99.90
7762;DHT22;3925;48.636;9.516;2022-08-19T00:07:32;20.20;99.90
7762;DHT22;3925;48.636;9.516;2022-08-19T00:09:59;20.10;99.90
7762;DHT22;3925;48.636;9.516;2022-08-19T00:12:26;20.10;99.90
7762;DHT22;3925;48.636;9.516;2022-08-19T00:14:53;19.90;99.90
7762;DHT22;3925;48.636;9.516;2022-08-19T00:17:20;19.90;99.90
7762;DHT22;3925;48.636;9.516;2022-08-19T00:19:47;19.80;99.90
7762;DHT22;3925;48.636;9.516;2022-08-19T00:22:14;19.80;99.90
7762;DHT22;3925;48.636;9.516;2022-08-19T00:24:44;19.80;99.90
7762;DHT22;3925;48.636;9.516;2022-08-19T00:27:12;19.80;99.90
7762;DHT22;3925;48.636;9.516;2022-08-19T00:29:39;19.80;99.90
7762;DHT22;3925;48.636;9.516;2022-08-19T00:32:06;19.80;99.90
7762;DHT22;3925;48.636;9.516;2022-08-19T00:34:33;19.80;99.90
7762;DHT22;3925;48.636;9.516;2022-08-19T00:37:00;19.70;99.90
7762;DHT22;3925;48.636;9.516;2022-08-19T00:39:27;19.80;99.90
7762;DHT22;3925;48.636;9.516;2022-08-19T00:41:56;19.80;99.90
7762;DHT22;3925;48.636;9.516;2022-08-19T00:44:26;19.80;99.90
7762;DHT22;3925;48.636;9.516;2022-08-19T00:46:56;19.80;99.90
7762;DHT22;3925;48.636;9.516;2022-08-19T00:49:27;19.80;99.90
7762;DHT22;3925;48.636;9.516;2022-08-19T00:51:59;19.70;99.90
7762;DHT22;3925;48.636;9.516;2022-08-19T00:54:27;19.60;99.90
7762;DHT22;3925;48.636;9.516;2022-08-19T00:56:58;19.70;99.90
7762;DHT22;3925;48.636;9.516;2022-08-19T00:59:27;19.60;99.90
7762;DHT22;3925;48.636;9.516;2022-08-19T01:01:54;19.60;99.90
7762;DHT22;3925;48.636;9.516;2022-08-19T01:04:21;19.60;99.90
7762;DHT22;3925;48.636;9.516;2022-08-19T01:06:48;19.60;99.90
7762;DHT22;3925;48.636;9.516;2022-08-19T01:09:15;19.60;99.90
7762;DHT22;3925;48.636;9.516;2022-08-19T01:11:44;19.60;99.90
7762;DHT22;3925;48.636;9.516;2022-08-19T01:14:12;19.60;99.90
7762;DHT22;3925;48.636;9.516;2022-08-19T01:16:40;19.60;99.90
7762;DHT22;3925;48.636;9.516;2022-08-19T01:19:15;19.60;99.90
7762;DHT22;3925;48.636;9.516;2022-08-19T01:21:51;19.70;99.90
7762;DHT22;3925;48.636;9.516;2022-08-19T01:24:20;19.70;99.90
7762;DHT22;3925;48.636;9.516;2022-08-19T01:26:47;19.60;99.90
7762;DHT22;3925;48.636;9.516;2022-08-19T01:29:14;19.60;99.90
7762;DHT22;3925;48.636;9.516;2022-08-19T01:31:42;19.50;99.90
7762;DHT22;3925;48.636;9.516;2022-08-19T01:34:09;19.50;99.90
7762;DHT22;3925;48.636;9.516;2022-08-19T01:36:38;19.50;99.90
7762;DHT22;3925;48.636;9.516;2022-08-19T01:39:12;19.60;99.90
7762;DHT22;3925;48.636;9.516;2022-08-19T01:41:40;19.60;99.90
7762;DHT22;3925;48.636;9.516;2022-08-19T01:44:09;19.50;99.90
7762;DHT22;3925;48.636;9.516;2022-08-19T01:46:37;19.50;99.90
7762;DHT22;3925;48.636;9.516;2022-08-19T01:49:05;19.60;99.90
7762;DHT22;3925;48.636;9.516;2022-08-19T01:51:33;19.50;99.90
7762;DHT22;3925;48.636;9.516;2022-08-19T01:54:00;19.50;99.90
7762;DHT22;3925;48.636;9.516;2022-08-19T01:56:27;19.50;99.90
7762;DHT22;3925;48.636;9.516;2022-08-19T01:58:58;19.50;99.90
7762;DHT22;3925;48.636;9.516;2022-08-19T02:01:26;19.40;99.90
7762;DHT22;3925;48.636;9.516;2022-08-19T02:03:58;19.40;99.90
7762;DHT22;3925;48.636;9.516;2022-08-19T02:06:26;19.40;99.90
7762;DHT22;3925;48.636;9.516;2022-08-19T02:08:53;19.40;99.90
7762;DHT22;3925;48.636;9.516;2022-08-19T02:11:22;19.40;99.90
7762;DHT22;3925;48.636;9.516;2022-08-19T02:13:49;19.50;99.90
7762;DHT22;3925;48.636;9.516;2022-08-19T02:16:18;19.40;99.90
7762;DHT22;3925;48.636;9.516;2022-08-19T02:18:46;19.40;99.90
7762;DHT22;3925;48.636;9.516;2022-08-19T02:21:14;19.40;99.90
7762;DHT22;3925;48.636;9.516;2022-08-19T02:23:41;19.40;99.90
7762;DHT22;3925;48.636;9.516;2022-08-19T02:26:08;19.40;99.90
7762;DHT22;3925;48.636;9.516;2022-08-19T02:28:35;19.40;99.90
7762;DHT22;3925;48.636;9.516;2022-08-19T02:31:03;19.30;99.90
7762;DHT22;3925;48.636;9.516;2022-08-19T02:33:31;19.40;99.90
7762;DHT22;3925;48.636;9.516;2022-08-19T02:35:58;19.30;99.90
7762;DHT22;3925;48.636;9.516;2022-08-19T02:38:25;19.40;99.90
7762;DHT22;3925;48.636;9.516;2022-08-19T02:40:52;19.30;99.90
7762;DHT22;3925;48.636;9.516;2022-08-19T02:43:20;19.40;99.90
7762;DHT22;3925;48.636;9.516;2022-08-19T02:45:49;19.40;99.90
7762;DHT22;3925;48.636;9.516;2022-08-19T02:48:17;19.40;99.90
7762;DHT22;3925;48.636;9.516;2022-08-19T02:50:46;19.40;99.90
7762;DHT22;3925;48.636;9.516;2022-08-19T02:53:14;19.40;99.90
7762;DHT22;3925;48.636;9.516;2022-08-19T02:55:44;19.40;99.90
7762;DHT22;3925;48.636;9.516;2022-08-19T02:58:12;19.40;99.90
7762;DHT22;3925;48.636;9.516;2022-08-19T03:00:46;19.40;99.90
7762;DHT22;3925;48.636;9.516;2022-08-19T03:03:13;19.40;99.90
7762;DHT22;3925;48.636;9.516;2022-08-19T03:05:41;19.40;99.90
7762;DHT22;3925;48.636;9.516;2022-08-19T03:08:10;19.40;99.90
7762;DHT22;3925;48.636;9.516;2022-08-19T03:10:42;19.30;99.90
7762;DHT22;3925;48.636;9.516;2022-08-19T03:13:12;19.30;99.90
7762;DHT22;3925;48.636;9.516;2022-08-19T03:15:41;19.30;99.90
7762;DHT22;3925;48.636;9.516;2022-08-19T03:18:08;19.40;99.90
7762;DHT22;3925;48.636;9.516;2022-08-19T03:20:40;19.40;99.90
7762;DHT22;3925;48.636;9.516;2022-08-19T03:23:09;19.30;99.90
7762;DHT22;3925;48.636;9.516;2022-08-19T03:25:37;19.30;99.90
7762;DHT22;3925;48.636;9.516;2022-08-19T03:28:04;19.30;99.90
7762;DHT22;3925;48.636;9.516;2022-08-19T03:30:31;19.30;99.90
7762;DHT22;3925;48.636;9.516;2022-08-19T03:32:58;19.30;99.90
7762;DHT22;3925;48.636;9.516;2022-08-19T03:35:25;19.30;99.90
7762;DHT22;3925;48.636;9.516;2022-08-19T03:37:52;19.30;99.90
7762;DHT22;3925;48.636;9.516;2022-08-19T03:40:20;19.30;99.90
7762;DHT22;3925;48.636;9.516;2022-08-19T03:42:47;19.30;99.90
7762;DHT22;3925;48.636;9.516;2022-08-19T03:45:15;19.30;99.90
7762;DHT22;3925;48.636;9.516;2022-08-19T03:47:42;19.30;99.90
7762;DHT22;3925;48.636;9.516;2022-08-19T03:50:09;19.30;99.90
7762;DHT22;3925;48.636;9.516;2022-08-19T03:52:36;19.20;99.90
7762;DHT22;3925;48.636;9.516;2022-08-19T03:55:03;19.30;99.90
7762;DHT22;3925;48.636;9.516;2022-08-19T03:57:32;19.30;99.90
7762;DHT22;3925;48.636;9.516;2022-08-19T04:00:00;19.30;99.90
7762;DHT22;3925;48.636;9.516;2022-08-19T04:02:27;19.30;99.90
7762;DHT22;3925;48.636;9.516;2022-08-19T04:04:54;19.30;99.90
7762;DHT22;3925;48.636;9.516;2022-08-19T04:07:21;19.20;99.90
7762;DHT22;3925;48.636;9.516;2022-08-19T04:09:48;19.10;99.90
7762;DHT22;3925;48.636;9.516;2022-08-19T04:12:16;19.20;99.90
7762;DHT22;3925;48.636;9.516;2022-08-19T04:14:44;19.20;99.90
7762;DHT22;3925;48.636;9.516;2022-08-19T04:17:11;19.20;99.90
7762;DHT22;3925;48.636;9.516;2022-08-19T04:19:39;19.20;99.90
7762;DHT22;3925;48.636;9.516;2022-08-19T04:22:08;19.20;99.90
7762;DHT22;3925;48.636;9.516;2022-08-19T04:24:37;19.20;99.90
7762;DHT22;3925;48.636;9.516;2022-08-19T04:27:04;19.20;99.90
7762;DHT22;3925;48.636;9.516;2022-08-19T04:29:31;19.20;99.90
7762;DHT22;3925;48.636;9.516;2022-08-19T04:32:00;19.20;99.90
7762;DHT22;3925;48.636;9.516;2022-08-19T04:34:29;19.20;99.90
7762;DHT22;3925;48.636;9.516;2022-08-19T04:36:57;19.20;99.90
7762;DHT22;3925;48.636;9.516;2022-08-19T04:39:28;19.20;99.90
7762;DHT22;3925;48.636;9.516;2022-08-19T04:42:09;19.30;99.90
7762;DHT22;3925;48.636;9.516;2022-08-19T04:44:54;19.20;99.90
7762;DHT22;3925;48.636;9.516;2022-08-19T04:47:22;19.30;99.90
7762;DHT22;3925;48.636;9.516;2022-08-19T04:49:49;19.30;99.90
7762;DHT22;3925;48.636;9.516;2022-08-19T04:52:16;19.30;99.90
7762;DHT22;3925;48.636;9.516;2022-08-19T04:54:43;19.30;99.90
7762;DHT22;3925;48.636;9.516;2022-08-19T04:57:10;19.30;99.90
7762;DHT22;3925;48.636;9.516;2022-08-19T04:59:38;19.40;99.90
7762;DHT22;3925;48.636;9.516;2022-08-19T05:02:06;19.40;99.90
7762;DHT22;3925;48.636;9.516;2022-08-19T05:04:34;19.40;99.90
7762;DHT22;3925;48.636;9.516;2022-08-19T05:07:04;19.40;99.90
7762;DHT22;3925;48.636;9.516;2022-08-19T05:09:31;19.40;99.90
7762;DHT22;3925;48.636;9.516;2022-08-19T05:11:58;19.40;99.90
7762;DHT22;3925;48.636;9.516;2022-08-19T05:14:25;19.30;99.90
7762;DHT22;3925;48.636;9.516;2022-08-19T05:16:52;19.20;99.90
7762;DHT22;3925;48.636;9.516;2022-08-19T05:19:19;19.20;99.90
7762;DHT22;3925;48.636;9.516;2022-08-19T05:22:05;19.30;99.90
7762;DHT22;3925;48.636;9.516;2022-08-19T05:24:49;19.30;99.90
7762;DHT22;3925;48.636;9.516;2022-08-19T05:27:16;19.30;99.90
7762;DHT22;3925;48.636;9.516;2022-08-19T05:29:43;19.30;99.90
7762;DHT22;3925;48.636;9.516;2022-08-19T05:32:09;19.30;99.90
7762;DHT22;3925;48.636;9.516;2022-08-19T05:34:37;19.40;99.90
7762;DHT22;3925;48.636;9.516;2022-08-19T05:37:06;19.30;99.90
7762;DHT22;3925;48.636;9.516;2022-08-19T05:39:35;19.30;99.90
7762;DHT22;3925;48.636;9.516;2022-08-19T05:42:04;19.40;99.90
7762;DHT22;3925;48.636;9.516;2022-08-19T05:44:34;19.30;99.90
7762;DHT22;3925;48.636;9.516;2022-08-19T05:47:04;19.20;99.90
7762;DHT22;3925;48.636;9.516;2022-08-19T05:49:33;19.20;99.90
7762;DHT22;3925;48.636;9.516;2022-08-19T05:52:02;19.40;99.90
7762;DHT22;3925;48.636;9.516;2022-08-19T05:54:32;19.40;99.90
7762;DHT22;3925;48.636;9.516;2022-08-19T05:57:01;19.40;99.90
7762;DHT22;3925;48.636;9.516;2022-08-19T05:59:28;19.50;99.90
7762;DHT22;3925;48.636;9.516;2022-08-19T06:01:56;19.50;99.90
7762;DHT22;3925;48.636;9.516;2022-08-19T06:04:23;19.50;99.90
7762;DHT22;3925;48.636;9.516;2022-08-19T06:06:52;19.50;99.90
7762;DHT22;3925;48.636;9.516;2022-08-19T06:09:20;19.50;99.90
7762;DHT22;3925;48.636;9.516;2022-08-19T06:11:50;19.50;99.90
7762;DHT22;3925;48.636;9.516;2022-08-19T06:14:21;19.50;99.90
7762;DHT22;3925;48.636;9.516;2022-08-19T06:16:48;19.50;99.90
7762;DHT22;3925;48.636;9.516;2022-08-19T06:19:19;19.50;99.90
7762;DHT22;3925;48.636;9.516;2022-08-19T06:21:48;19.60;99.90
7762;DHT22;3925;48.636;9.516;2022-08-19T06:24:17;19.60;99.90
7762;DHT22;3925;48.636;9.516;2022-08-19T06:26:46;19.60;99.90
7762;DHT22;3925;48.636;9.516;2022-08-19T06:29:16;19.60;99.90
7762;DHT22;3925;48.636;9.516;2022-08-19T06:31:46;19.60;99.90
7762;DHT22;3925;48.636;9.516;2022-08-19T06:34:15;19.60;99.90
7762;DHT22;3925;48.636;9.516;2022-08-19T06:36:45;19.60;99.90
7762;DHT22;3925;48.636;9.516;2022-08-19T06:39:15;19.60;99.90
7762;DHT22;3925;48.636;9.516;2022-08-19T06:41:45;19.60;99.90
7762;DHT22;3925;48.636;9.516;2022-08-19T06:44:13;19.60;99.90
7762;DHT22;3925;48.636;9.516;2022-08-19T06:46:41;19.60;99.90
7762;DHT22;3925;48.636;9.516;2022-08-19T06:49:08;19.60;99.90
7762;DHT22;3925;48.636;9.516;2022-08-19T06:51:40;19.60;99.90
7762;DHT22;3925;48.636;9.516;2022-08-19T06:54:08;19.60;99.90
7762;DHT22;3925;48.636;9.516;2022-08-19T06:56:36;19.60;99.90
7762;DHT22;3925;48.636;9.516;2022-08-19T06:59:05;19.60;99.90
7762;DHT22;3925;48.636;9.516;2022-08-19T07:01:36;19.60;99.90
7762;DHT22;3925;48.636;9.516;2022-08-19T07:04:04;19.70;99.90
7762;DHT22;3925;48.636;9.516;2022-08-19T07:06:31;19.70;99.90
7762;DHT22;3925;48.636;9.516;2022-08-19T07:08:59;19.70;99.90
7762;DHT22;3925;48.636;9.516;2022-08-19T07:11:26;19.70;99.90
7762;DHT22;3925;48.636;9.516;2022-08-19T07:13:53;19.70;99.90
7762;DHT22;3925;48.636;9.516;2022-08-19T07:16:20;19.70;99.90
7762;DHT22;3925;48.636;9.516;2022-08-19T07:18:50;19.80;99.90
7762;DHT22;3925;48.636;9.516;2022-08-19T07:21:19;19.70;99.90
7762;DHT22;3925;48.636;9.516;2022-08-19T07:23:47;19.70;99.90
7762;DHT22;3925;48.636;9.516;2022-08-19T07:26:19;19.70;99.90
7762;DHT22;3925;48.636;9.516;2022-08-19T07:28:47;19.70;99.90
7762;DHT22;3925;48.636;9.516;2022-08-19T07:31:16;19.70;99.90
7762;DHT22;3925;48.636;9.516;2022-08-19T07:33:44;19.70;99.90
7762;DHT22;3925;48.636;9.516;2022-08-19T07:36:15;19.70;99.90
7762;DHT22;3925;48.636;9.516;2022-08-19T07:38:44;19.70;99.90
7762;DHT22;3925;48.636;9.516;2022-08-19T07:41:17;19.70;99.90
7762;DHT22;3925;48.636;9.516;2022-08-19T07:43:45;19.60;99.90
7762;DHT22;3925;48.636;9.516;2022-08-19T07:46:13;19.60;99.90
7762;DHT22;3925;48.636;9.516;2022-08-19T07:48:42;19.60;99.90
7762;DHT22;3925;48.636;9.516;2022-08-19T07:51:15;19.50;99.90
7762;DHT22;3925;48.636;9.516;2022-08-19T07:53:43;19.50;99.90
7762;DHT22;3925;48.636;9.516;2022-08-19T07:56:12;19.50;99.90
7762;DHT22;3925;48.636;9.516;2022-08-19T07:58:42;19.50;99.90
7762;DHT22;3925;48.636;9.516;2022-08-19T08:01:10;19.50;99.90
7762;DHT22;3925;48.636;9.516;2022-08-19T08:03:38;19.40;99.90
7762;DHT22;3925;48.636;9.516;2022-08-19T08:06:20;19.50;99.90
7762;DHT22;3925;48.636;9.516;2022-08-19T08:09:05;19.50;99.90
7762;DHT22;3925;48.636;9.516;2022-08-19T08:11:43;19.40;99.90
7762;DHT22;3925;48.636;9.516;2022-08-19T08:14:16;19.40;99.90
7762;DHT22;3925;48.636;9.516;2022-08-19T08:16:44;19.40;99.90
7762;DHT22;3925;48.636;9.516;2022-08-19T08:19:12;19.40;99.90
7762;DHT22;3925;48.636;9.516;2022-08-19T08:21:42;19.40;99.90
7762;DHT22;3925;48.636;9.516;2022-08-19T08:24:09;19.40;99.90
7762;DHT22;3925;48.636;9.516;2022-08-19T08:26:36;19.40;99.90
7762;DHT22;3925;48.636;9.516;2022-08-19T08:29:03;19.50;99.90
7762;DHT22;3925;48.636;9.516;2022-08-19T08:31:33;19.60;99.90
7762;DHT22;3925;48.636;9.516;2022-08-19T08:34:00;19.60;99.90
7762;DHT22;3925;48.636;9.516;2022-08-19T08:36:28;19.60;99.90
7762;DHT22;3925;48.636;9.516;2022-08-19T08:39:00;19.60;99.90
7762;DHT22;3925;48.636;9.516;2022-08-19T08:41:34;19.70;99.90
7762;DHT22;3925;48.636;9.516;2022-08-19T08:44:04;19.70;99.90
7762;DHT22;3925;48.636;9.516;2022-08-19T08:46:37;19.70;99.90
7762;DHT22;3925;48.636;9.516;2022-08-19T08:49:20;19.80;99.90
7762;DHT22;3925;48.636;9.516;2022-08-19T08:51:54;19.90;99.90
7762;DHT22;3925;48.636;9.516;2022-08-19T08:54:30;19.90;99.90
7762;DHT22;3925;48.636;9.516;2022-08-19T08:56:59;19.70;99.90
7762;DHT22;3925;48.636;9.516;2022-08-19T08:59:29;19.80;99.90
7762;DHT22;3925;48.636;9.516;2022-08-19T09:01:57;19.80;99.90
7762;DHT22;3925;48.636;9.516;2022-08-19T09:04:25;19.80;99.90
7762;DHT22;3925;48.636;9.516;2022-08-19T09:06:56;19.80;99.90
7762;DHT22;3925;48.636;9.516;2022-08-19T09:09:35;19.90;99.90
7762;DHT22;3925;48.636;9.516;2022-08-19T09:12:10;19.90;99.90
7762;DHT22;3925;48.636;9.516;2022-08-19T09:14:47;19.80;99.90
7762;DHT22;3925;48.636;9.516;2022-08-19T09:17:15;19.90;99.90
7762;DHT22;3925;48.636;9.516;2022-08-19T09:19:53;19.80;99.90
7762;DHT22;3925;48.636;9.516;2022-08-19T09:22:21;19.80;99.90
7762;DHT22;3925;48.636;9.516;2022-08-19T09:24:51;19.80;99.90
7762;DHT22;3925;48.636;9.516;2022-08-19T09:27:18;19.90;99.90
7762;DHT22;3925;48.636;9.516;2022-08-19T09:29:46;19.80;99.90
7762;DHT22;3925;48.636;9.516;2022-08-19T09:32:14;19.80;99.90
7762;DHT22;3925;48.636;9.516;2022-08-19T09:34:41;19.80;99.90
7762;DHT22;3925;48.636;9.516;2022-08-19T09:37:09;19.80;99.90
7762;DHT22;3925;48.636;9.516;2022-08-19T09:39:37;19.80;99.90
7762;DHT22;3925;48.636;9.516;2022-08-19T09:42:07;19.80;99.90
7762;DHT22;3925;48.636;9.516;2022-08-19T09:44:38;19.80;99.90
7762;DHT22;3925;48.636;9.516;2022-08-19T09:47:05;19.80;99.90
7762;DHT22;3925;48.636;9.516;2022-08-19T09:49:32;20.00;99.90
7762;DHT22;3925;48.636;9.516;2022-08-19T09:51:59;20.00;99.90
7762;DHT22;3925;48.636;9.516;2022-08-19T09:54:27;20.00;99.90
7762;DHT22;3925;48.636;9.516;2022-08-19T09:56:54;20.00;99.90
7762;DHT22;3925;48.636;9.516;2022-08-19T09:59:23;20.00;99.90
7762;DHT22;3925;48.636;9.516;2022-08-19T10:01:50;20.00;99.90
7762;DHT22;3925;48.636;9.516;2022-08-19T10:04:18;20.10;99.90
7762;DHT22;3925;48.636;9.516;2022-08-19T10:06:47;20.10;99.90
7762;DHT22;3925;48.636;9.516;2022-08-19T10:09:16;20.00;99.90
7762;DHT22;3925;48.636;9.516;2022-08-19T10:11:44;20.00;99.90
7762;DHT22;3925;48.636;9.516;2022-08-19T10:14:13;20.10;99.90
7762;DHT22;3925;48.636;9.516;2022-08-19T10:16:43;20.00;99.90
7762;DHT22;3925;48.636;9.516;2022-08-19T10:19:10;20.10;99.90
7762;DHT22;3925;48.636;9.516;2022-08-19T10:21:37;20.10;99.90
7762;DHT22;3925;48.636;9.516;2022-08-19T10:24:05;20.20;99.90
7762;DHT22;3925;48.636;9.516;2022-08-19T10:26:34;20.10;99.90
7762;DHT22;3925;48.636;9.516;2022-08-19T10:29:01;20.00;99.90
7762;DHT22;3925;48.636;9.516;2022-08-19T10:31:31;19.90;99.90
7762;DHT22;3925;48.636;9.516;2022-08-19T10:34:01;19.90;99.90
7762;DHT22;3925;48.636;9.516;2022-08-19T10:36:30;19.90;99.90
7762;DHT22;3925;48.636;9.516;2022-08-19T10:39:00;19.90;99.90
7762;DHT22;3925;48.636;9.516;2022-08-19T10:41:30;20.00;99.90
7762;DHT22;3925;48.636;9.516;2022-08-19T10:43:59;20.00;99.90
7762;DHT22;3925;48.636;9.516;2022-08-19T10:46:28;20.20;99.90
7762;DHT22;3925;48.636;9.516;2022-08-19T10:49:00;20.10;99.90
7762;DHT22;3925;48.636;9.516;2022-08-19T10:51:27;20.10;99.90
7762;DHT22;3925;48.636;9.516;2022-08-19T10:54:12;20.10;99.90
7762;DHT22;3925;48.636;9.516;2022-08-19T10:56:39;20.00;99.90
7762;DHT22;3925;48.636;9.516;2022-08-19T10:59:18;20.00;99.90
7762;DHT22;3925;48.636;9.516;2022-08-19T11:01:47;20.00;99.90
7762;DHT22;3925;48.636;9.516;2022-08-19T11:04:16;20.10;99.90
7762;DHT22;3925;48.636;9.516;2022-08-19T11:06:44;20.00;99.90
7762;DHT22;3925;48.636;9.516;2022-08-19T11:09:12;20.00;99.90
7762;DHT22;3925;48.636;9.516;2022-08-19T11:11:40;20.00;99.90
7762;DHT22;3925;48.636;9.516;2022-08-19T11:14:08;19.90;99.90
7762;DHT22;3925;48.636;9.516;2022-08-19T11:16:35;19.90;99.90
7762;DHT22;3925;48.636;9.516;2022-08-19T11:19:04;20.00;99.90
7762;DHT22;3925;48.636;9.516;2022-08-19T11:21:36;20.00;99.90
7762;DHT22;3925;48.636;9.516;2022-08-19T11:24:06;20.00;99.90
7762;DHT22;3925;48.636;9.516;2022-08-19T11:26:34;20.10;99.90
7762;DHT22;3925;48.636;9.516;2022-08-19T11:29:02;20.10;99.90
7762;DHT22;3925;48.636;9.516;2022-08-19T11:31:31;20.10;99.90
7762;DHT22;3925;48.636;9.516;2022-08-19T11:34:00;20.20;99.90
7762;DHT22;3925;48.636;9.516;2022-08-19T11:36:28;20.30;99.90
7762;DHT22;3925;48.636;9.516;2022-08-19T11:38:56;20.40;99.90
7762;DHT22;3925;48.636;9.516;2022-08-19T11:41:24;20.40;99.90
7762;DHT22;3925;48.636;9.516;2022-08-19T11:43:52;20.40;99.90
7762;DHT22;3925;48.636;9.516;2022-08-19T11:46:21;20.40;99.90
7762;DHT22;3925;48.636;9.516;2022-08-19T11:48:49;20.30;99.90
7762;DHT22;3925;48.636;9.516;2022-08-19T11:51:19;20.30;99.90
7762;DHT22;3925;48.636;9.516;2022-08-19T11:53:47;20.30;99.90
7762;DHT22;3925;48.636;9.516;2022-08-19T11:56:16;20.20;99.90
7762;DHT22;3925;48.636;9.516;2022-08-19T11:58:44;20.10;99.90
7762;DHT22;3925;48.636;9.516;2022-08-19T12:01:13;20.10;99.90
7762;DHT22;3925;48.636;9.516;2022-08-19T12:03:41;20.00;99.90
7762;DHT22;3925;48.636;9.516;2022-08-19T12:06:11;20.00;99.90
7762;DHT22;3925;48.636;9.516;2022-08-19T12:08:39;19.90;99.90
7762;DHT22;3925;48.636;9.516;2022-08-19T12:11:06;19.90;99.90
7762;DHT22;3925;48.636;9.516;2022-08-19T12:13:35;19.80;99.90
7762;DHT22;3925;48.636;9.516;2022-08-19T12:16:07;19.80;99.90
7762;DHT22;3925;48.636;9.516;2022-08-19T12:18:35;19.80;99.90
7762;DHT22;3925;48.636;9.516;2022-08-19T12:21:01;19.70;99.90
7762;DHT22;3925;48.636;9.516;2022-08-19T12:23:29;19.60;99.90
7762;DHT22;3925;48.636;9.516;2022-08-19T12:25:56;19.70;99.90
7762;DHT22;3925;48.636;9.516;2022-08-19T12:28:24;19.60;99.90
7762;DHT22;3925;48.636;9.516;2022-08-19T12:30:53;19.60;99.90
7762;DHT22;3925;48.636;9.516;2022-08-19T12:33:20;19.70;99.90
7762;DHT22;3925;48.636;9.516;2022-08-19T12:35:50;19.70;99.90
7762;DHT22;3925;48.636;9.516;2022-08-19T12:38:17;19.70;99.90
7762;DHT22;3925;48.636;9.516;2022-08-19T12:40:46;19.80;99.90
7762;DHT22;3925;48.636;9.516;2022-08-19T12:43:13;19.80;99.90
7762;DHT22;3925;48.636;9.516;2022-08-19T12:45:42;19.80;99.90
7762;DHT22;3925;48.636;9.516;2022-08-19T12:48:10;19.90;99.90
7762;DHT22;3925;48.636;9.516;2022-08-19T12:50:39;20.00;99.90
7762;DHT22;3925;48.636;9.516;2022-08-19T12:53:06;20.10;99.90
7762;DHT22;3925;48.636;9.516;2022-08-19T12:55:33;20.20;99.90
7762;DHT22;3925;48.636;9.516;2022-08-19T12:58:00;20.20;99.90
7762;DHT22;3925;48.636;9.516;2022-08-19T13:00:28;20.20;99.90
7762;DHT22;3925;48.636;9.516;2022-08-19T13:02:58;20.20;99.90
7762;DHT22;3925;48.636;9.516;2022-08-19T13:05:29;20.10;99.90
7762;DHT22;3925;48.636;9.516;2022-08-19T13:07:57;20.00;99.90
7762;DHT22;3925;48.636;9.516;2022-08-19T13:10:28;20.00;99.90
7762;DHT22;3925;48.636;9.516;2022-08-19T13:12:57;20.00;99.90
7762;DHT22;3925;48.636;9.516;2022-08-19T13:15:25;20.00;99.90
7762;DHT22;3925;48.636;9.516;2022-08-19T13:17:54;20.00;99.90
7762;DHT22;3925;48.636;9.516;2022-08-19T13:20:22;19.90;99.90
7762;DHT22;3925;48.636;9.516;2022-08-19T13:22:50;19.90;99.90
7762;DHT22;3925;48.636;9.516;2022-08-19T13:25:18;19.90;99.90
7762;DHT22;3925;48.636;9.516;2022-08-19T13:27:47;19.90;99.90
7762;DHT22;3925;48.636;9.516;2022-08-19T13:30:16;19.90;99.90
7762;DHT22;3925;48.636;9.516;2022-08-19T13:33:01;19.90;99.90
7762;DHT22;3925;48.636;9.516;2022-08-19T13:35:47;19.80;99.90
7762;DHT22;3925;48.636;9.516;2022-08-19T13:38:17;19.80;99.90
7762;DHT22;3925;48.636;9.516;2022-08-19T13:40:44;19.80;99.90
7762;DHT22;3925;48.636;9.516;2022-08-19T13:43:12;19.80;99.90
7762;DHT22;3925;48.636;9.516;2022-08-19T13:45:39;19.90;99.90
7762;DHT22;3925;48.636;9.516;2022-08-19T13:48:07;19.90;99.90
7762;DHT22;3925;48.636;9.516;2022-08-19T13:50:38;19.90;99.90
7762;DHT22;3925;48.636;9.516;2022-08-19T13:53:06;19.90;99.90
7762;DHT22;3925;48.636;9.516;2022-08-19T13:55:35;19.90;99.90
7762;DHT22;3925;48.636;9.516;2022-08-19T13:58:03;19.80;99.90
7762;DHT22;3925;48.636;9.516;2022-08-19T14:00:33;19.90;99.90
7762;DHT22;3925;48.636;9.516;2022-08-19T14:03:02;19.90;99.90
7762;DHT22;3925;48.636;9.516;2022-08-19T14:05:30;19.80;99.90
7762;DHT22;3925;48.636;9.516;2022-08-19T14:07:57;19.80;99.90
7762;DHT22;3925;48.636;9.516;2022-08-19T14:10:26;19.70;99.90
7762;DHT22;3925;48.636;9.516;2022-08-19T14:12:59;19.70;99.90
7762;DHT22;3925;48.636;9.516;2022-08-19T14:15:27;19.60;99.90
7762;DHT22;3925;48.636;9.516;2022-08-19T14:17:55;19.60;99.90
7762;DHT22;3925;48.636;9.516;2022-08-19T14:20:22;19.60;99.90
7762;DHT22;3925;48.636;9.516;2022-08-19T14:22:49;19.60;99.90
7762;DHT22;3925;48.636;9.516;2022-08-19T14:25:19;19.60;99.90
7762;DHT22;3925;48.636;9.516;2022-08-19T14:27:47;19.70;99.90
7762;DHT22;3925;48.636;9.516;2022-08-19T14:30:17;19.60;99.90
7762;DHT22;3925;48.636;9.516;2022-08-19T14:32:44;19.70;99.90
7762;DHT22;3925;48.636;9.516;2022-08-19T14:35:14;19.70;99.90
7762;DHT22;3925;48.636;9.516;2022-08-19T14:37:42;19.70;99.90
7762;DHT22;3925;48.636;9.516;2022-08-19T14:40:11;19.60;99.90
7762;DHT22;3925;48.636;9.516;2022-08-19T14:42:38;19.60;99.90
7762;DHT22;3925;48.636;9.516;2022-08-19T14:45:06;19.80;99.90
7762;DHT22;3925;48.636;9.516;2022-08-19T14:47:34;19.90;99.90
7762;DHT22;3925;48.636;9.516;2022-08-19T14:50:02;19.90;99.90
7762;DHT22;3925;48.636;9.516;2022-08-19T14:52:29;20.00;99.90
7762;DHT22;3925;48.636;9.516;2022-08-19T14:54:56;20.10;99.90
7762;DHT22;3925;48.636;9.516;2022-08-19T14:57:23;20.00;99.90
7762;DHT22;3925;48.636;9.516;2022-08-19T14:59:50;20.20;99.90
7762;DHT22;3925;48.636;9.516;2022-08-19T15:02:17;20.10;99.90
7762;DHT22;3925;48.636;9.516;2022-08-19T15:04:47;20.10;99.90
7762;DHT22;3925;48.636;9.516;2022-08-19T15:07:14;20.20;99.90
7762;DHT22;3925;48.636;9.516;2022-08-19T15:09:40;20.30;99.90
7762;DHT22;3925;48.636;9.516;2022-08-19T15:12:08;20.50;99.90
7762;DHT22;3925;48.636;9.516;2022-08-19T15:14:36;20.50;99.90
7762;DHT22;3925;48.636;9.516;2022-08-19T15:17:04;20.50;99.90
7762;DHT22;3925;48.636;9.516;2022-08-19T15:19:32;20.60;99.90
7762;DHT22;3925;48.636;9.516;2022-08-19T15:22:02;20.70;99.90
7762;DHT22;3925;48.636;9.516;2022-08-19T15:24:29;20.70;99.90
7762;DHT22;3925;48.636;9.516;2022-08-19T15:26:58;20.70;99.90
7762;DHT22;3925;48.636;9.516;2022-08-19T15:29:25;20.70;99.90
7762;DHT22;3925;48.636;9.516;2022-08-19T15:31:53;20.70;99.90
7762;DHT22;3925;48.636;9.516;2022-08-19T15:34:22;20.70;99.90
7762;DHT22;3925;48.636;9.516;2022-08-19T15:36:50;20.60;99.90
7762;DHT22;3925;48.636;9.516;2022-08-19T15:39:18;20.30;99.90
7762;DHT22;3925;48.636;9.516;2022-08-19T15:41:46;20.20;99.90
7762;DHT22;3925;48.636;9.516;2022-08-19T15:44:15;20.30;99.90
7762;DHT22;3925;48.636;9.516;2022-08-19T15:46:44;20.30;99.90
7762;DHT22;3925;48.636;9.516;2022-08-19T15:49:13;20.20;99.90
7762;DHT22;3925;48.636;9.516;2022-08-19T15:51:43;20.00;99.90
7762;DHT22;3925;48.636;9.516;2022-08-19T15:54:13;19.80;99.90
7762;DHT22;3925;48.636;9.516;2022-08-19T15:56:41;19.70;99.90
7762;DHT22;3925;48.636;9.516;2022-08-19T15:59:32;19.60;99.90
7762;DHT22;3925;48.636;9.516;2022-08-19T16:02:19;19.60;99.90
7762;DHT22;3925;48.636;9.516;2022-08-19T16:05:07;19.70;99.90
7762;DHT22;3925;48.636;9.516;2022-08-19T16:07:51;19.70;99.90
7762;DHT22;3925;48.636;9.516;2022-08-19T16:10:19;19.80;99.90
7762;DHT22;3925;48.636;9.516;2022-08-19T16:12:53;19.90;99.90